PWSweather.com
Personal Weather Stations
Station Observations
N3SME
Betz Creek, Wilmington Island, Savannah, GA 31410

Betz Creek, Wilmington IslandSavannah, GA 31410

Lat: 32.023021, Lon: -80.959452

Elevation: 15

Station Type: Ambient

High Low Average
Temperature 62.9°F17.2°F 59.8°F15.4°F 61.2°F16.2°F
Dew Point 54.2°F12.3°F 45.4°F7.4°F 50.2°F10.1°F
Winds 8.7 mph WNW14.0 mph WNW Calm Calm 1.2 mph 1.9 mph
Wind Gusts 31.5 mph50.7 mph 1.8 mph2.9 mph 12.8 mph20.6 mph
Humidity 80% 59% 68%
Pressure 29.75 in1007.50 in 29.75 in1007.50 in -
Precipitation 0.00 in0.00 in - -
Hour Temp Dew Point Humidity Winds Wind Gusts Pressure Precip Precip Rate Daily Precip Total
12:07 AM 62.0°F16.7°C 58.3°F14.6°C 88% Calm Calm 1.8 mph2.9 kmh 29.85 in1010.8 mb 0.00 in0.0 mm 0.00 in/hr0.0 mm/hr 0.00 in0.0 mm
12:22 AM 61.6°F16.4°C 58.0°F14.4°C 88% Calm Calm 1.8 mph2.9 kmh 29.85 in1010.8 mb 0.00 in0.0 mm 0.00 in/hr0.0 mm/hr 0.00 in0.0 mm
12:37 AM 61.2°F16.2°C 57.6°F14.2°C 88% Calm Calm 1.8 mph2.9 kmh 29.85 in1010.8 mb 0.00 in0.0 mm 0.00 in/hr0.0 mm/hr 0.00 in0.0 mm
12:52 AM 60.7°F15.9°C 57.4°F14.1°C 89% Calm Calm 1.8 mph2.9 kmh 29.84 in1010.5 mb 0.00 in0.0 mm 0.00 in/hr0.0 mm/hr 0.00 in0.0 mm
01:07 AM 60.3°F15.7°C 57.4°F14.1°C 90% Calm Calm 1.8 mph2.9 kmh 29.85 in1010.8 mb 0.00 in0.0 mm 0.00 in/hr0.0 mm/hr 0.00 in0.0 mm
01:22 AM 60.2°F15.7°C 57.2°F14.0°C 90% Calm Calm 1.8 mph2.9 kmh 29.84 in1010.5 mb 0.00 in0.0 mm 0.00 in/hr0.0 mm/hr 0.00 in0.0 mm
01:37 AM 59.8°F15.4°C 57.2°F14.0°C 91% Calm Calm 1.8 mph2.9 kmh 29.84 in1010.5 mb 0.00 in0.0 mm 0.00 in/hr0.0 mm/hr 0.00 in0.0 mm
01:52 AM 59.6°F15.3°C 57.0°F13.9°C 91% Calm Calm 1.8 mph2.9 kmh 29.83 in1010.2 mb 0.00 in0.0 mm 0.00 in/hr0.0 mm/hr 0.00 in0.0 mm
02:07 AM 59.4°F15.2°C 57.1°F13.9°C 92% Calm Calm 5.1 mph8.2 kmh 29.83 in1010.2 mb 0.00 in0.0 mm 0.00 in/hr0.0 mm/hr 0.00 in0.0 mm
02:22 AM 59.4°F15.2°C 57.1°F13.9°C 92% Calm Calm 3.6 mph5.8 kmh 29.83 in1010.2 mb 0.00 in0.0 mm 0.00 in/hr0.0 mm/hr 0.00 in0.0 mm
02:37 AM 59.3°F15.2°C 57.2°F14.0°C 93% Calm Calm 3.6 mph5.8 kmh 29.83 in1010.2 mb 0.00 in0.0 mm 0.00 in/hr0.0 mm/hr 0.00 in0.0 mm
02:52 AM 59.3°F15.2°C 57.2°F14.0°C 93% Calm Calm 5.1 mph8.2 kmh 29.82 in1009.8 mb 0.00 in0.0 mm 0.00 in/hr0.0 mm/hr 0.00 in0.0 mm
03:07 AM 59.1°F15.1°C 57.0°F13.9°C 93% Calm Calm 3.6 mph5.8 kmh 29.82 in1009.8 mb 0.00 in0.0 mm 0.00 in/hr0.0 mm/hr 0.00 in0.0 mm
03:22 AM 58.9°F14.9°C 57.2°F14.0°C 94% Calm Calm 3.6 mph5.8 kmh 29.81 in1009.5 mb 0.00 in0.0 mm 0.00 in/hr0.0 mm/hr 0.00 in0.0 mm
03:37 AM 58.7°F14.8°C 56.7°F13.7°C 93% Calm Calm 1.8 mph2.9 kmh 29.82 in1009.8 mb 0.00 in0.0 mm 0.00 in/hr0.0 mm/hr 0.00 in0.0 mm
03:52 AM 58.5°F14.7°C 56.8°F13.8°C 94% Calm Calm 5.1 mph8.2 kmh 29.81 in1009.5 mb 0.00 in0.0 mm 0.00 in/hr0.0 mm/hr 0.00 in0.0 mm
04:07 AM 58.4°F14.7°C 56.6°F13.7°C 94% Calm Calm 3.6 mph5.8 kmh 29.81 in1009.5 mb 0.00 in0.0 mm 0.00 in/hr0.0 mm/hr 0.00 in0.0 mm
04:22 AM 58.4°F14.7°C 56.6°F13.7°C 94% Calm Calm 1.8 mph2.9 kmh 29.81 in1009.5 mb 0.00 in0.0 mm 0.00 in/hr0.0 mm/hr 0.00 in0.0 mm
04:37 AM 58.4°F14.7°C 56.9°F13.8°C 95% Calm Calm 3.6 mph5.8 kmh 29.81 in1009.5 mb 0.00 in0.0 mm 0.00 in/hr0.0 mm/hr 0.00 in0.0 mm
04:52 AM 58.2°F14.6°C 56.5°F13.6°C 94% Calm Calm 3.6 mph5.8 kmh 29.81 in1009.5 mb 0.00 in0.0 mm 0.00 in/hr0.0 mm/hr 0.00 in0.0 mm
05:07 AM 58.2°F14.6°C 56.7°F13.7°C 95% Calm Calm 6.9 mph11.1 kmh 29.80 in1009.1 mb 0.00 in0.0 mm 0.00 in/hr0.0 mm/hr 0.00 in0.0 mm
05:22 AM 58.4°F14.7°C 56.9°F13.8°C 95% 1.8 mph NW2.9 kmh NW 6.9 mph11.1 kmh 29.81 in1009.5 mb 0.00 in0.0 mm 0.00 in/hr0.0 mm/hr 0.00 in0.0 mm
05:37 AM 58.4°F14.7°C 57.2°F14.0°C 96% Calm Calm 5.1 mph8.2 kmh 29.81 in1009.5 mb 0.00 in0.0 mm 0.00 in/hr0.0 mm/hr 0.00 in0.0 mm
05:52 AM 58.4°F14.7°C 57.2°F14.0°C 96% Calm Calm 10.5 mph16.9 kmh 29.81 in1009.5 mb 0.00 in0.0 mm 0.00 in/hr0.0 mm/hr 0.00 in0.0 mm
06:07 AM 58.2°F14.6°C 57.0°F13.9°C 96% Calm Calm 6.9 mph11.1 kmh 29.81 in1009.5 mb 0.00 in0.0 mm 0.00 in/hr0.0 mm/hr 0.00 in0.0 mm
06:22 AM 58.0°F14.4°C 56.6°F13.7°C 95% Calm Calm 5.1 mph8.2 kmh 29.82 in1009.8 mb 0.00 in0.0 mm 0.00 in/hr0.0 mm/hr 0.00 in0.0 mm
06:37 AM 57.6°F14.2°C 56.2°F13.4°C 95% Calm Calm 5.1 mph8.2 kmh 29.82 in1009.8 mb 0.00 in0.0 mm 0.00 in/hr0.0 mm/hr 0.00 in0.0 mm
06:52 AM 57.5°F14.2°C 56.3°F13.5°C 96% Calm Calm 5.1 mph8.2 kmh 29.81 in1009.5 mb 0.00 in0.0 mm 0.00 in/hr0.0 mm/hr 0.00 in0.0 mm
07:07 AM 57.5°F14.2°C 56.3°F13.5°C 96% Calm Calm 6.9 mph11.1 kmh 29.81 in1009.5 mb 0.00 in0.0 mm 0.00 in/hr0.0 mm/hr 0.00 in0.0 mm
07:22 AM 57.3°F14.1°C 56.1°F13.4°C 96% Calm Calm 6.9 mph11.1 kmh 29.82 in1009.8 mb 0.00 in0.0 mm 0.00 in/hr0.0 mm/hr 0.00 in0.0 mm
07:37 AM 57.1°F13.9°C 56.0°F13.3°C 96% Calm Calm 5.1 mph8.2 kmh 29.82 in1009.8 mb 0.00 in0.0 mm 0.00 in/hr0.0 mm/hr 0.00 in0.0 mm
07:52 AM 56.9°F13.8°C 55.8°F13.2°C 96% Calm Calm 6.9 mph11.1 kmh 29.82 in1009.8 mb 0.00 in0.0 mm 0.00 in/hr0.0 mm/hr 0.00 in0.0 mm
08:07 AM 56.9°F13.8°C 55.8°F13.2°C 96% Calm Calm 5.1 mph8.2 kmh 29.83 in1010.2 mb 0.00 in0.0 mm 0.00 in/hr0.0 mm/hr 0.00 in0.0 mm
08:22 AM 57.1°F13.9°C 56.0°F13.3°C 96% Calm Calm 3.6 mph5.8 kmh 29.83 in1010.2 mb 0.00 in0.0 mm 0.00 in/hr0.0 mm/hr 0.00 in0.0 mm
08:37 AM 57.6°F14.2°C 56.5°F13.6°C 96% Calm Calm 5.1 mph8.2 kmh 29.83 in1010.2 mb 0.00 in0.0 mm 0.00 in/hr0.0 mm/hr 0.00 in0.0 mm
08:52 AM 58.4°F14.7°C 57.2°F14.0°C 96% Calm Calm 5.1 mph8.2 kmh 29.83 in1010.2 mb 0.00 in0.0 mm 0.00 in/hr0.0 mm/hr 0.00 in0.0 mm
09:07 AM 61.1°F16.2°C 59.6°F15.3°C 95% Calm Calm 6.9 mph11.1 kmh 29.83 in1010.2 mb 0.00 in0.0 mm 0.00 in/hr0.0 mm/hr 0.00 in0.0 mm
09:22 AM 66.8°F19.3°C 61.1°F16.2°C 82% Calm Calm 6.9 mph11.1 kmh 29.83 in1010.2 mb 0.00 in0.0 mm 0.00 in/hr0.0 mm/hr 0.00 in0.0 mm
09:37 AM 67.2°F19.6°C 60.7°F15.9°C 80% 1.8 mph ENE2.9 kmh ENE 6.9 mph11.1 kmh 29.83 in1010.2 mb 0.00 in0.0 mm 0.00 in/hr0.0 mm/hr 0.00 in0.0 mm
09:52 AM 64.7°F18.2°C 57.5°F14.2°C 78% 3.6 mph E5.8 kmh E 17.4 mph28.0 kmh 29.83 in1010.2 mb 0.00 in0.0 mm 0.00 in/hr0.0 mm/hr 0.00 in0.0 mm
10:07 AM 64.8°F18.2°C 57.0°F13.9°C 76% 5.1 mph ENE8.2 kmh ENE 15.7 mph25.3 kmh 29.83 in1010.2 mb 0.00 in0.0 mm 0.00 in/hr0.0 mm/hr 0.00 in0.0 mm
10:22 AM 67.4°F19.7°C 57.8°F14.3°C 72% Calm Calm 15.7 mph25.3 kmh 29.83 in1010.2 mb 0.00 in0.0 mm 0.00 in/hr0.0 mm/hr 0.00 in0.0 mm
10:37 AM 69.3°F20.7°C 56.2°F13.4°C 64% 6.9 mph NE11.1 kmh NE 15.7 mph25.3 kmh 29.83 in1010.2 mb 0.00 in0.0 mm 0.00 in/hr0.0 mm/hr 0.00 in0.0 mm
10:52 AM 70.8°F21.6°C 55.2°F12.9°C 59% 5.1 mph E8.2 kmh E 17.4 mph28.0 kmh 29.83 in1010.2 mb 0.00 in0.0 mm 0.00 in/hr0.0 mm/hr 0.00 in0.0 mm
11:07 AM 71.1°F21.7°C 52.9°F11.6°C 54% 3.6 mph E5.8 kmh E 15.7 mph25.3 kmh 29.83 in1010.2 mb 0.00 in0.0 mm 0.00 in/hr0.0 mm/hr 0.00 in0.0 mm
11:22 AM 71.1°F21.7°C 52.9°F11.6°C 54% 6.9 mph NE11.1 kmh NE 14.1 mph22.7 kmh 29.82 in1009.8 mb 0.00 in0.0 mm 0.00 in/hr0.0 mm/hr 0.00 in0.0 mm
11:37 AM 71.1°F21.7°C 52.4°F11.3°C 53% 3.6 mph NNE5.8 kmh NNE 12.3 mph19.8 kmh 29.82 in1009.8 mb 0.00 in0.0 mm 0.00 in/hr0.0 mm/hr 0.00 in0.0 mm
11:52 AM 71.9°F22.2°C 50.1°F10.1°C 48% 3.6 mph E5.8 kmh E 15.7 mph25.3 kmh 29.82 in1009.8 mb 0.00 in0.0 mm 0.00 in/hr0.0 mm/hr 0.00 in0.0 mm
12:07 PM 71.7°F22.1°C 49.3°F9.6°C 47% 1.8 mph NNE2.9 kmh NNE 14.1 mph22.7 kmh 29.81 in1009.5 mb 0.00 in0.0 mm 0.00 in/hr0.0 mm/hr 0.00 in0.0 mm
12:22 PM 72.2°F22.3°C 49.8°F9.9°C 47% 3.6 mph E5.8 kmh E 14.1 mph22.7 kmh 29.80 in1009.1 mb 0.00 in0.0 mm 0.00 in/hr0.0 mm/hr 0.00 in0.0 mm
12:37 PM 72.6°F22.6°C 49.5°F9.7°C 46% 3.6 mph N5.8 kmh N 10.5 mph16.9 kmh 29.79 in1008.8 mb 0.00 in0.0 mm 0.00 in/hr0.0 mm/hr 0.00 in0.0 mm
12:52 PM 72.9°F22.7°C 50.4°F10.2°C 47% 6.9 mph NNW11.1 kmh NNW 19.2 mph30.9 kmh 29.78 in1008.5 mb 0.00 in0.0 mm 0.00 in/hr0.0 mm/hr 0.00 in0.0 mm
01:07 PM 71.0°F21.7°C 49.9°F9.9°C 49% 1.8 mph E2.9 kmh E 17.4 mph28.0 kmh 29.78 in1008.5 mb 0.00 in0.0 mm 0.00 in/hr0.0 mm/hr 0.00 in0.0 mm
01:22 PM 71.7°F22.1°C 49.3°F9.6°C 47% Calm Calm 12.3 mph19.8 kmh 29.77 in1008.1 mb 0.00 in0.0 mm 0.00 in/hr0.0 mm/hr 0.00 in0.0 mm
01:37 PM 73.1°F22.8°C 49.3°F9.6°C 45% 5.1 mph NE8.2 kmh NE 14.1 mph22.7 kmh 29.76 in1007.8 mb 0.00 in0.0 mm 0.00 in/hr0.0 mm/hr 0.00 in0.0 mm
01:52 PM 71.9°F22.2°C 48.8°F9.3°C 46% 1.8 mph NW2.9 kmh NW 12.3 mph19.8 kmh 29.76 in1007.8 mb 0.00 in0.0 mm 0.00 in/hr0.0 mm/hr 0.00 in0.0 mm
02:07 PM 71.7°F22.1°C 48.7°F9.3°C 46% 1.8 mph N2.9 kmh N 12.3 mph19.8 kmh 29.75 in1007.5 mb 0.00 in0.0 mm 0.00 in/hr0.0 mm/hr 0.00 in0.0 mm
02:22 PM 72.0°F22.2°C 47.7°F8.7°C 44% 3.6 mph NNW5.8 kmh NNW 14.1 mph22.7 kmh 29.75 in1007.5 mb 0.00 in0.0 mm 0.00 in/hr0.0 mm/hr 0.00 in0.0 mm
02:37 PM 73.1°F22.8°C 46.5°F8.1°C 41% 5.1 mph NNW8.2 kmh NNW 21.0 mph33.8 kmh 29.75 in1007.5 mb 0.00 in0.0 mm 0.00 in/hr0.0 mm/hr 0.00 in0.0 mm
02:52 PM 72.2°F22.3°C 48.5°F9.2°C 45% 1.8 mph NW2.9 kmh NW 19.2 mph30.9 kmh 29.75 in1007.5 mb 0.00 in0.0 mm 0.00 in/hr0.0 mm/hr 0.00 in0.0 mm
03:07 PM 71.7°F22.1°C 48.0°F8.9°C 45% 1.8 mph N2.9 kmh N 8.7 mph14.0 kmh 29.74 in1007.1 mb 0.00 in0.0 mm 0.00 in/hr0.0 mm/hr 0.00 in0.0 mm
03:22 PM 70.8°F21.6°C 49.1°F9.5°C 48% Calm Calm 14.1 mph22.7 kmh 29.73 in1006.8 mb 0.00 in0.0 mm 0.00 in/hr0.0 mm/hr 0.00 in0.0 mm
03:37 PM 70.8°F21.6°C 49.1°F9.5°C 48% 1.8 mph NE2.9 kmh NE 17.4 mph28.0 kmh 29.73 in1006.8 mb 0.00 in0.0 mm 0.00 in/hr0.0 mm/hr 0.00 in0.0 mm
03:52 PM 71.5°F21.9°C 48.5°F9.2°C 46% Calm Calm 12.3 mph19.8 kmh 29.72 in1006.4 mb 0.00 in0.0 mm 0.00 in/hr0.0 mm/hr 0.00 in0.0 mm
04:07 PM 71.7°F22.1°C 48.7°F9.3°C 46% 1.8 mph N2.9 kmh N 10.5 mph16.9 kmh 29.72 in1006.4 mb 0.00 in0.0 mm 0.00 in/hr0.0 mm/hr 0.00 in0.0 mm
04:22 PM 70.8°F21.6°C 49.1°F9.5°C 48% 1.8 mph NE2.9 kmh NE 15.7 mph25.3 kmh 29.72 in1006.4 mb 0.00 in0.0 mm 0.00 in/hr0.0 mm/hr 0.00 in0.0 mm
04:37 PM 70.2°F21.2°C 48.6°F9.2°C 48% Calm Calm 8.7 mph14.0 kmh 29.72 in1006.4 mb 0.00 in0.0 mm 0.00 in/hr0.0 mm/hr 0.00 in0.0 mm
04:52 PM 70.1°F21.2°C 49.7°F9.8°C 50% Calm Calm 5.1 mph8.2 kmh 29.72 in1006.4 mb 0.00 in0.0 mm 0.00 in/hr0.0 mm/hr 0.00 in0.0 mm
05:07 PM 68.8°F20.4°C 50.2°F10.1°C 53% Calm Calm 5.1 mph8.2 kmh 29.72 in1006.4 mb 0.00 in0.0 mm 0.00 in/hr0.0 mm/hr 0.00 in0.0 mm
05:22 PM 68.1°F20.1°C 50.6°F10.3°C 55% Calm Calm 3.6 mph5.8 kmh 29.72 in1006.4 mb 0.00 in0.0 mm 0.00 in/hr0.0 mm/hr 0.00 in0.0 mm
05:37 PM 67.0°F19.4°C 51.7°F10.9°C 59% Calm Calm 1.8 mph2.9 kmh 29.73 in1006.8 mb 0.00 in0.0 mm 0.00 in/hr0.0 mm/hr 0.00 in0.0 mm
05:52 PM 66.3°F19.1°C 52.0°F11.1°C 61% Calm Calm 1.8 mph2.9 kmh 29.73 in1006.8 mb 0.00 in0.0 mm 0.00 in/hr0.0 mm/hr 0.00 in0.0 mm
06:07 PM 65.6°F18.7°C 53.1°F11.7°C 65% Calm Calm 3.6 mph5.8 kmh 29.73 in1006.8 mb 0.00 in0.0 mm 0.00 in/hr0.0 mm/hr 0.00 in0.0 mm
06:22 PM 65.2°F18.4°C 53.2°F11.8°C 66% Calm Calm 1.8 mph2.9 kmh 29.73 in1006.8 mb 0.00 in0.0 mm 0.00 in/hr0.0 mm/hr 0.00 in0.0 mm
06:37 PM 64.5°F18.1°C 53.4°F11.9°C 68% Calm Calm 1.8 mph2.9 kmh 29.73 in1006.8 mb 0.00 in0.0 mm 0.00 in/hr0.0 mm/hr 0.00 in0.0 mm
06:52 PM 63.6°F17.6°C 53.0°F11.7°C 69% Calm Calm 1.8 mph2.9 kmh 29.73 in1006.8 mb 0.00 in0.0 mm 0.00 in/hr0.0 mm/hr 0.00 in0.0 mm
07:07 PM 63.2°F17.3°C 53.0°F11.7°C 70% Calm Calm 1.8 mph2.9 kmh 29.73 in1006.8 mb 0.00 in0.0 mm 0.00 in/hr0.0 mm/hr 0.00 in0.0 mm
07:22 PM 63.2°F17.3°C 53.8°F12.1°C 72% Calm Calm -- 29.73 in1006.8 mb 0.00 in0.0 mm 0.00 in/hr0.0 mm/hr 0.00 in0.0 mm
07:37 PM 63.0°F17.2°C 54.1°F12.3°C 73% Calm Calm 1.8 mph2.9 kmh 29.74 in1007.1 mb 0.00 in0.0 mm 0.00 in/hr0.0 mm/hr 0.00 in0.0 mm
07:52 PM 63.2°F17.3°C 54.2°F12.3°C 73% Calm Calm 1.8 mph2.9 kmh 29.75 in1007.5 mb 0.00 in0.0 mm 0.00 in/hr0.0 mm/hr 0.00 in0.0 mm